Time,TemperatureF,DewpointF,PressureIn,WindDirection,WindDirectionDegrees,WindSpeedMPH,WindSpeedGustMPH,Humidity,HourlyPrecipIn,Conditions,Clouds,dailyrainin,SoftwareType,DateUTC
2013-08-11 00:01:00,67.3,56.8,30.12,East,90,0.0,0.0,69,0.00,,,0.00,Wunderground v.1.15,2013-08-11 04:01:00,
2013-08-11 00:06:00,66.9,56.8,30.11,East,90,0.0,0.0,70,0.00,,,0.00,Wunderground v.1.15,2013-08-11 04:06:00,
2013-08-11 00:11:00,66.7,57.0,30.11,East,90,0.0,1.0,71,0.00,,,0.00,Wunderground v.1.15,2013-08-11 04:11:00,
2013-08-11 00:16:00,66.5,57.2,30.11,East,90,0.0,1.0,72,0.00,,,0.00,Wunderground v.1.15,2013-08-11 04:16:00,
2013-08-11 00:21:00,66.3,57.4,30.11,East,90,0.0,0.0,73,0.00,,,0.00,Wunderground v.1.15,2013-08-11 04:21:00,
2013-08-11 00:26:00,66.0,57.5,30.11,East,90,0.0,0.0,74,0.00,,,0.00,Wunderground v.1.15,2013-08-11 04:26:00,
2013-08-11 00:31:00,65.8,57.3,30.11,East,90,0.0,0.0,74,0.00,,,0.00,Wunderground v.1.15,2013-08-11 04:31:00,
2013-08-11 00:36:00,65.8,57.7,30.11,East,90,0.0,1.0,75,0.00,,,0.00,Wunderground v.1.15,2013-08-11 04:36:00,
2013-08-11 00:41:00,65.6,57.8,30.11,East,90,0.0,0.0,76,0.00,,,0.00,Wunderground v.1.15,2013-08-11 04:41:00,
2013-08-11 00:46:00,65.5,57.7,30.11,East,90,0.0,0.0,76,0.00,,,0.00,Wunderground v.1.15,2013-08-11 04:46:00,
2013-08-11 00:51:00,65.6,57.8,30.11,East,90,1.0,1.0,76,0.00,,,0.00,Wunderground v.1.15,2013-08-11 04:51:00,
2013-08-11 00:56:00,65.6,57.8,30.11,East,90,0.0,2.0,76,0.00,,,0.00,Wunderground v.1.15,2013-08-11 04:56:00,
2013-08-11 01:01:00,65.5,57.7,30.11,East,90,0.0,1.0,76,0.00,,,0.00,Wunderground v.1.15,2013-08-11 05:01:00,
2013-08-11 01:06:00,65.4,57.6,30.11,East,90,0.0,1.0,76,0.00,,,0.00,Wunderground v.1.15,2013-08-11 05:06:00,
2013-08-11 01:11:00,65.2,57.4,30.11,East,90,1.0,1.0,76,0.00,,,0.00,Wunderground v.1.15,2013-08-11 05:11:00,
2013-08-11 01:16:00,65.0,57.6,30.11,East,90,1.0,1.0,77,0.00,,,0.00,Wunderground v.1.15,2013-08-11 05:16:00,
2013-08-11 01:21:00,64.9,57.5,30.10,East,90,0.0,1.0,77,0.00,,,0.00,Wunderground v.1.15,2013-08-11 05:21:00,
2013-08-11 01:26:00,64.7,57.3,30.11,East,90,0.0,1.0,77,0.00,,,0.00,Wunderground v.1.15,2013-08-11 05:26:00,
2013-08-11 01:32:00,64.5,57.5,30.11,East,90,0.0,0.0,78,0.00,,,0.00,Wunderground v.1.15,2013-08-11 05:32:00,
2013-08-11 01:37:00,64.5,57.5,30.11,East,90,0.0,0.0,78,0.00,,,0.00,Wunderground v.1.15,2013-08-11 05:37:00,
2013-08-11 01:42:00,64.3,57.3,30.10,East,90,0.0,0.0,78,0.00,,,0.00,Wunderground v.1.15,2013-08-11 05:42:00,
2013-08-11 01:47:00,64.3,57.3,30.11,East,90,0.0,0.0,78,0.00,,,0.00,Wunderground v.1.15,2013-08-11 05:47:00,
2013-08-11 01:52:00,64.2,57.2,30.11,East,88,0.0,1.0,78,0.00,,,0.00,Wunderground v.1.15,2013-08-11 05:52:00,
2013-08-11 01:57:00,64.2,57.2,30.11,East,88,0.0,1.0,78,0.00,,,0.00,Wunderground v.1.15,2013-08-11 05:57:00,
2013-08-11 02:02:00,64.3,57.6,30.11,East,88,0.0,0.0,79,0.00,,,0.00,Wunderground v.1.15,2013-08-11 06:02:00,
2013-08-11 02:07:00,64.3,57.3,30.10,East,88,0.0,0.0,78,0.00,,,0.00,Wunderground v.1.15,2013-08-11 06:07:00,
2013-08-11 02:12:00,64.3,57.3,30.10,East,88,0.0,0.0,78,0.00,,,0.00,Wunderground v.1.15,2013-08-11 06:12:00,
2013-08-11 02:17:00,64.9,56.0,30.11,East,88,0.0,1.0,73,0.00,,,0.00,Wunderground v.1.15,2013-08-11 06:17:00,
2013-08-11 02:22:00,65.6,55.9,30.10,East,88,0.0,0.0,71,0.00,,,0.00,Wunderground v.1.15,2013-08-11 06:22:00,
2013-08-11 02:27:00,65.7,55.6,30.10,East,88,0.0,1.0,70,0.00,,,0.00,Wunderground v.1.15,2013-08-11 06:27:00,
2013-08-11 02:32:00,65.7,55.2,30.10,East,88,0.0,1.0,69,0.00,,,0.00,Wunderground v.1.15,2013-08-11 06:32:00,
2013-08-11 02:37:00,65.7,55.2,30.11,East,83,0.0,1.0,69,0.00,,,0.00,Wunderground v.1.15,2013-08-11 06:37:00,
2013-08-11 02:42:00,65.2,56.7,30.11,East,83,0.0,1.0,74,0.00,,,0.00,Wunderground v.1.15,2013-08-11 06:42:00,
2013-08-11 02:47:00,63.9,55.8,30.11,East,83,0.0,1.0,75,0.00,,,0.00,Wunderground v.1.15,2013-08-11 06:47:00,
2013-08-11 02:53:00,63.4,56.1,30.11,East,83,1.0,2.0,77,0.00,,,0.00,Wunderground v.1.15,2013-08-11 06:53:00,
2013-08-11 02:58:00,63.0,56.4,30.11,East,83,1.0,2.0,79,0.00,,,0.00,Wunderground v.1.15,2013-08-11 06:58:00,
2013-08-11 03:03:00,62.7,56.4,30.11,East,83,1.0,2.0,80,0.00,,,0.00,Wunderground v.1.15,2013-08-11 07:03:00,
2013-08-11 03:08:00,62.5,56.2,30.11,East,84,1.0,2.0,80,0.00,,,0.00,Wunderground v.1.15,2013-08-11 07:08:00,
2013-08-11 03:13:00,62.2,56.3,30.11,East,84,0.0,2.0,81,0.00,,,0.00,Wunderground v.1.15,2013-08-11 07:13:00,
2013-08-11 03:18:00,62.1,56.2,30.10,East,84,1.0,2.0,81,0.00,,,0.00,Wunderground v.1.15,2013-08-11 07:18:00,
2013-08-11 03:23:00,62.1,56.5,30.11,East,84,0.0,1.0,82,0.00,,,0.00,Wunderground v.1.15,2013-08-11 07:23:00,
2013-08-11 03:28:00,61.7,56.1,30.11,East,84,0.0,1.0,82,0.00,,,0.00,Wunderground v.1.15,2013-08-11 07:28:00,
2013-08-11 03:33:00,61.4,56.2,30.11,East,84,1.0,2.0,83,0.00,,,0.00,Wunderground v.1.15,2013-08-11 07:33:00,
2013-08-11 03:38:00,61.1,56.2,30.11,East,84,0.0,2.0,84,0.00,,,0.00,Wunderground v.1.15,2013-08-11 07:38:00,
2013-08-11 03:43:00,61.0,56.5,30.11,East,84,1.0,2.0,85,0.00,,,0.00,Wunderground v.1.15,2013-08-11 07:43:00,
2013-08-11 03:48:00,61.1,56.6,30.11,East,84,2.0,2.0,85,0.00,,,0.00,Wunderground v.1.15,2013-08-11 07:48:00,
2013-08-11 03:54:00,61.0,56.5,30.11,East,84,2.0,2.0,85,0.00,,,0.00,Wunderground v.1.15,2013-08-11 07:54:00,
2013-08-11 03:59:00,61.1,56.6,30.11,East,84,1.0,1.0,85,0.00,,,0.00,Wunderground v.1.15,2013-08-11 07:59:00,
2013-08-11 04:04:00,61.2,56.7,30.11,East,84,1.0,2.0,85,0.00,,,0.00,Wunderground v.1.15,2013-08-11 08:04:00,
2013-08-11 04:09:00,61.2,56.3,30.11,East,84,1.0,1.0,84,0.00,,,0.00,Wunderground v.1.15,2013-08-11 08:09:00,
2013-08-11 04:14:00,61.1,56.2,30.11,East,84,1.0,2.0,84,0.00,,,0.00,Wunderground v.1.15,2013-08-11 08:14:00,
2013-08-11 04:20:00,61.1,56.6,30.11,East,84,2.0,2.0,85,0.00,,,0.00,Wunderground v.1.15,2013-08-11 08:20:00,
2013-08-11 04:25:00,61.2,56.7,30.11,East,84,1.0,2.0,85,0.00,,,0.00,Wunderground v.1.15,2013-08-11 08:25:00,
2013-08-11 04:30:00,61.3,56.8,30.11,East,84,1.0,1.0,85,0.00,,,0.00,Wunderground v.1.15,2013-08-11 08:30:00,
2013-08-11 04:35:00,61.2,56.7,30.11,East,84,2.0,2.0,85,0.00,,,0.00,Wunderground v.1.15,2013-08-11 08:35:00,
2013-08-11 04:40:00,61.3,57.1,30.11,East,84,2.0,2.0,86,0.00,,,0.00,Wunderground v.1.15,2013-08-11 08:40:00,
2013-08-11 04:45:00,61.2,56.7,30.11,East,84,1.0,2.0,85,0.00,,,0.00,Wunderground v.1.15,2013-08-11 08:45:00,
2013-08-11 04:50:00,61.0,56.8,30.11,East,84,1.0,2.0,86,0.00,,,0.00,Wunderground v.1.15,2013-08-11 08:50:00,
2013-08-11 04:55:00,60.9,56.7,30.11,East,84,2.0,2.0,86,0.00,,,0.00,Wunderground v.1.15,2013-08-11 08:55:00,
2013-08-11 05:00:00,60.7,56.8,30.11,East,84,2.0,2.0,87,0.00,,,0.00,Wunderground v.1.15,2013-08-11 09:00:00,
2013-08-11 05:05:00,60.7,56.8,30.11,East,84,2.0,2.0,87,0.00,,,0.00,Wunderground v.1.15,2013-08-11 09:05:00,
2013-08-11 05:10:00,60.6,57.0,30.12,East,84,3.0,3.0,88,0.00,,,0.00,Wunderground v.1.15,2013-08-11 09:10:00,
2013-08-11 05:15:00,60.5,56.9,30.12,East,84,2.0,3.0,88,0.00,,,0.00,Wunderground v.1.15,2013-08-11 09:15:00,
2013-08-11 05:20:00,60.5,56.9,30.11,East,84,1.0,2.0,88,0.00,,,0.00,Wunderground v.1.15,2013-08-11 09:20:00,
2013-08-11 05:25:00,60.5,57.2,30.11,East,84,0.0,2.0,89,0.00,,,0.00,Wunderground v.1.15,2013-08-11 09:25:00,
2013-08-11 05:30:00,60.5,56.9,30.11,East,84,0.0,1.0,88,0.00,,,0.00,Wunderground v.1.15,2013-08-11 09:30:00,
2013-08-11 05:35:00,60.4,57.1,30.11,East,84,1.0,2.0,89,0.00,,,0.00,Wunderground v.1.15,2013-08-11 09:35:00,
2013-08-11 05:41:00,60.3,57.0,30.11,East,84,1.0,2.0,89,0.00,,,0.00,Wunderground v.1.15,2013-08-11 09:41:00,
2013-08-11 05:46:00,60.2,56.9,30.11,East,84,1.0,2.0,89,0.00,,,0.00,Wunderground v.1.15,2013-08-11 09:46:00,
2013-08-11 05:51:00,60.0,56.7,30.11,East,84,2.0,3.0,89,0.00,,,0.00,Wunderground v.1.15,2013-08-11 09:51:00,
2013-08-11 05:56:00,59.8,56.9,30.11,East,95,3.0,3.0,90,0.00,,,0.00,Wunderground v.1.15,2013-08-11 09:56:00,
2013-08-11 06:01:00,59.6,56.7,30.11,East,95,2.0,3.0,90,0.00,,,0.00,Wunderground v.1.15,2013-08-11 10:01:00,
2013-08-11 06:06:00,59.5,56.9,30.11,East,95,3.0,3.0,91,0.00,,,0.00,Wunderground v.1.15,2013-08-11 10:06:00,
2013-08-11 06:11:00,59.1,56.5,30.11,East,95,2.0,3.0,91,0.00,,,0.00,Wunderground v.1.15,2013-08-11 10:11:00,
2013-08-11 06:16:00,58.9,56.6,30.12,East,95,3.0,3.0,92,0.00,,,0.00,Wunderground v.1.15,2013-08-11 10:16:00,
2013-08-11 06:21:00,58.9,56.6,30.12,East,98,2.0,3.0,92,0.00,,,0.00,Wunderground v.1.15,2013-08-11 10:21:00,
2013-08-11 06:27:00,58.9,56.6,30.12,East,98,2.0,3.0,92,0.00,,,0.00,Wunderground v.1.15,2013-08-11 10:27:00,
2013-08-11 06:32:00,59.0,56.7,30.12,East,98,2.0,3.0,92,0.00,,,0.00,Wunderground v.1.15,2013-08-11 10:32:00,
2013-08-11 06:37:00,59.2,56.9,30.12,East,98,2.0,3.0,92,0.00,,,0.00,Wunderground v.1.15,2013-08-11 10:37:00,
2013-08-11 06:42:00,59.3,57.0,30.12,East,98,2.0,3.0,92,0.00,,,0.00,Wunderground v.1.15,2013-08-11 10:42:00,
2013-08-11 06:47:00,59.5,56.9,30.13,East,98,2.0,3.0,91,0.00,,,0.00,Wunderground v.1.15,2013-08-11 10:47:00,
2013-08-11 06:52:00,59.6,57.3,30.12,East,98,3.0,4.0,92,0.00,,,0.00,Wunderground v.1.15,2013-08-11 10:52:00,
2013-08-11 06:57:00,59.7,57.1,30.11,East,98,2.0,4.0,91,0.00,,,0.00,Wunderground v.1.15,2013-08-11 10:57:00,
2013-08-11 07:02:00,59.7,57.1,30.11,East,98,3.0,3.0,91,0.00,,,0.00,Wunderground v.1.15,2013-08-11 11:02:00,
2013-08-11 07:07:00,59.6,57.0,30.11,East,98,2.0,3.0,91,0.00,,,0.00,Wunderground v.1.15,2013-08-11 11:07:00,
2013-08-11 07:12:00,59.6,57.0,30.11,East,98,2.0,2.0,91,0.00,,,0.00,Wunderground v.1.15,2013-08-11 11:12:00,
2013-08-11 07:17:00,59.6,57.0,30.11,East,98,2.0,3.0,91,0.00,,,0.00,Wunderground v.1.15,2013-08-11 11:17:00,
2013-08-11 07:22:00,59.6,57.0,30.11,East,99,2.0,3.0,91,0.00,,,0.00,Wunderground v.1.15,2013-08-11 11:22:00,
2013-08-11 07:27:00,59.5,57.2,30.11,East,99,2.0,3.0,92,0.00,,,0.00,Wunderground v.1.15,2013-08-11 11:27:00,
2013-08-11 07:32:00,59.5,57.2,30.11,East,99,1.0,2.0,92,0.00,,,0.00,Wunderground v.1.15,2013-08-11 11:32:00,
2013-08-11 07:37:00,59.5,57.2,30.11,East,99,2.0,2.0,92,0.00,,,0.00,Wunderground v.1.15,2013-08-11 11:37:00,
2013-08-11 07:42:00,59.6,57.3,30.11,East,99,2.0,2.0,92,0.00,,,0.00,Wunderground v.1.15,2013-08-11 11:42:00,
2013-08-11 07:47:00,59.8,57.2,30.11,East,99,2.0,3.0,91,0.00,,,0.00,Wunderground v.1.15,2013-08-11 11:47:00,
2013-08-11 07:52:00,60.1,57.5,30.11,East,99,1.0,3.0,91,0.00,,,0.00,Wunderground v.1.15,2013-08-11 11:52:00,
2013-08-11 07:58:00,60.5,57.6,30.12,East,99,2.0,3.0,90,0.00,,,0.00,Wunderground v.1.15,2013-08-11 11:58:00,
2013-08-11 08:03:00,60.8,57.5,30.12,East,99,3.0,3.0,89,0.00,,,0.00,Wunderground v.1.15,2013-08-11 12:03:00,
2013-08-11 08:08:00,61.3,58.0,30.12,East,99,3.0,3.0,89,0.00,,,0.00,Wunderground v.1.15,2013-08-11 12:08:00,
2013-08-11 08:13:00,61.8,58.2,30.12,East,101,2.0,3.0,88,0.00,,,0.00,Wunderground v.1.15,2013-08-11 12:13:00,
2013-08-11 08:18:00,62.5,58.6,30.12,East,101,3.0,3.0,87,0.00,,,0.00,Wunderground v.1.15,2013-08-11 12:18:00,
2013-08-11 08:23:00,63.0,59.1,30.12,East,101,2.0,2.0,87,0.00,,,0.00,Wunderground v.1.15,2013-08-11 12:23:00,
2013-08-11 08:28:00,63.4,59.1,30.12,East,101,1.0,3.0,86,0.00,,,0.00,Wunderground v.1.15,2013-08-11 12:28:00,
2013-08-11 08:33:00,63.8,59.5,30.12,East,101,0.0,2.0,86,0.00,,,0.00,Wunderground v.1.15,2013-08-11 12:33:00,
2013-08-11 08:38:00,64.0,60.1,30.13,East,101,0.0,2.0,87,0.00,,,0.00,Wunderground v.1.15,2013-08-11 12:38:00,
2013-08-11 08:43:00,64.5,59.6,30.12,East,101,0.0,0.0,84,0.00,,,0.00,Wunderground v.1.15,2013-08-11 12:43:00,
2013-08-11 08:48:00,65.0,60.0,30.13,East,101,0.0,0.0,84,0.00,,,0.00,Wunderground v.1.15,2013-08-11 12:48:00,
2013-08-11 08:53:00,65.2,59.9,30.13,East,101,0.0,0.0,83,0.00,,,0.00,Wunderground v.1.15,2013-08-11 12:53:00,
2013-08-11 08:58:00,65.6,60.6,30.13,East,101,0.0,0.0,84,0.00,,,0.00,Wunderground v.1.15,2013-08-11 12:58:00,
2013-08-11 09:04:00,66.0,60.7,30.13,East,101,0.0,0.0,83,0.00,,,0.00,Wunderground v.1.15,2013-08-11 13:04:00,
2013-08-11 09:09:00,66.3,60.3,30.13,East,101,0.0,0.0,81,0.00,,,0.00,Wunderground v.1.15,2013-08-11 13:09:00,
2013-08-11 09:14:00,67.0,61.0,30.12,East,101,0.0,1.0,81,0.00,,,0.00,Wunderground v.1.15,2013-08-11 13:14:00,
2013-08-11 09:19:00,66.5,60.8,30.12,East,101,0.0,0.0,82,0.00,,,0.00,Wunderground v.1.15,2013-08-11 13:19:00,
2013-08-11 09:24:00,66.5,61.2,30.12,East,101,0.0,0.0,83,0.00,,,0.00,Wunderground v.1.15,2013-08-11 13:24:00,
2013-08-11 09:29:00,66.2,60.9,30.12,East,101,0.0,0.0,83,0.00,,,0.00,Wunderground v.1.15,2013-08-11 13:29:00,
2013-08-11 09:34:00,65.8,61.2,30.12,East,101,0.0,0.0,85,0.00,,,0.00,Wunderground v.1.15,2013-08-11 13:34:00,
2013-08-11 09:39:00,65.5,60.2,30.12,East,101,0.0,0.0,83,0.00,,,0.00,Wunderground v.1.15,2013-08-11 13:39:00,
2013-08-11 09:44:00,65.4,60.1,30.12,East,101,0.0,1.0,83,0.00,,,0.00,Wunderground v.1.15,2013-08-11 13:44:00,
2013-08-11 09:49:00,65.5,60.5,30.13,East,101,1.0,1.0,84,0.00,,,0.00,Wunderground v.1.15,2013-08-11 13:49:00,
2013-08-11 09:54:00,65.6,61.0,30.12,East,101,0.0,1.0,85,0.00,,,0.00,Wunderground v.1.15,2013-08-11 13:54:00,
2013-08-11 09:59:00,65.6,61.3,30.13,East,101,0.0,1.0,86,0.00,,,0.00,Wunderground v.1.15,2013-08-11 13:59:00,
2013-08-11 10:04:00,65.9,61.9,30.13,East,101,1.0,1.0,87,0.00,,,0.00,Wunderground v.1.15,2013-08-11 14:04:00,
2013-08-11 10:09:00,66.6,62.3,30.13,East,101,0.0,1.0,86,0.00,,,0.00,Wunderground v.1.15,2013-08-11 14:09:00,
2013-08-11 10:14:00,67.0,62.7,30.13,East,101,0.0,1.0,86,0.00,,,0.00,Wunderground v.1.15,2013-08-11 14:14:00,
2013-08-11 10:19:00,66.9,62.2,30.13,East,101,0.0,0.0,85,0.00,,,0.00,Wunderground v.1.15,2013-08-11 14:19:00,
2013-08-11 10:24:00,67.7,63.4,30.13,East,101,0.0,1.0,86,0.00,,,0.00,Wunderground v.1.15,2013-08-11 14:24:00,
2013-08-11 10:29:00,67.4,62.7,30.13,East,101,1.0,1.0,85,0.00,,,0.00,Wunderground v.1.15,2013-08-11 14:29:00,
2013-08-11 10:34:00,67.1,62.8,30.13,East,101,2.0,3.0,86,0.00,,,0.00,Wunderground v.1.15,2013-08-11 14:34:00,
2013-08-11 10:40:00,67.0,62.0,30.13,East,101,2.0,2.0,84,0.00,,,0.00,Wunderground v.1.15,2013-08-11 14:40:00,
2013-08-11 10:45:00,67.2,62.5,30.13,East,101,0.0,2.0,85,0.00,,,0.00,Wunderground v.1.15,2013-08-11 14:45:00,
2013-08-11 10:50:00,67.2,62.2,30.13,East,101,2.0,2.0,84,0.00,,,0.00,Wunderground v.1.15,2013-08-11 14:50:00,
2013-08-11 10:55:00,67.2,61.9,30.13,East,101,2.0,3.0,83,0.00,,,0.00,Wunderground v.1.15,2013-08-11 14:55:00,
2013-08-11 11:00:00,67.3,62.3,30.13,East,101,2.0,2.0,84,0.00,,,0.00,Wunderground v.1.15,2013-08-11 15:00:00,
2013-08-11 11:05:00,67.4,62.4,30.13,East,101,2.0,2.0,84,0.00,,,0.00,Wunderground v.1.15,2013-08-11 15:05:00,
2013-08-11 11:10:00,67.4,62.1,30.13,East,101,2.0,2.0,83,0.00,,,0.00,Wunderground v.1.15,2013-08-11 15:10:00,
2013-08-11 11:15:00,67.5,62.5,30.13,East,101,2.0,3.0,84,0.00,,,0.00,Wunderground v.1.15,2013-08-11 15:15:00,
2013-08-11 11:20:00,67.6,62.6,30.13,East,101,3.0,3.0,84,0.00,,,0.00,Wunderground v.1.15,2013-08-11 15:20:00,
2013-08-11 11:25:00,67.5,62.8,30.13,North,349,3.0,4.0,85,0.00,,,0.00,Wunderground v.1.15,2013-08-11 15:25:00,
2013-08-11 11:30:00,67.4,62.7,30.13,NNW,328,3.0,4.0,85,0.00,,,0.00,Wunderground v.1.15,2013-08-11 15:30:00,
2013-08-11 11:35:00,67.4,62.4,30.13,NNW,328,3.0,4.0,84,0.00,,,0.00,Wunderground v.1.15,2013-08-11 15:35:00,
2013-08-11 11:40:00,67.5,63.2,30.13,NNW,328,2.0,3.0,86,0.00,,,0.00,Wunderground v.1.15,2013-08-11 15:40:00,
2013-08-11 11:46:00,67.5,63.2,30.13,NNW,328,3.0,3.0,86,0.00,,,0.00,Wunderground v.1.15,2013-08-11 15:46:00,
2013-08-11 11:51:00,67.9,63.6,30.13,NNW,328,3.0,3.0,86,0.00,,,0.00,Wunderground v.1.15,2013-08-11 15:51:00,
2013-08-11 11:56:00,67.9,62.9,30.13,NNW,328,3.0,4.0,84,0.00,,,0.00,Wunderground v.1.15,2013-08-11 15:56:00,
2013-08-11 12:01:00,68.0,64.0,30.13,NNW,328,3.0,3.0,87,0.00,,,0.00,Wunderground v.1.15,2013-08-11 16:01:00,
2013-08-11 12:06:00,68.0,63.3,30.13,NNW,328,3.0,3.0,85,0.00,,,0.00,Wunderground v.1.15,2013-08-11 16:06:00,
2013-08-11 12:11:00,68.2,63.5,30.13,NNW,328,3.0,4.0,85,0.00,,,0.00,Wunderground v.1.15,2013-08-11 16:11:00,
2013-08-11 12:16:00,68.2,63.5,30.13,NNW,328,4.0,5.0,85,0.00,,,0.00,Wunderground v.1.15,2013-08-11 16:16:00,
2013-08-11 12:21:00,68.4,64.0,30.13,NW,317,5.0,6.0,86,0.00,,,0.00,Wunderground v.1.15,2013-08-11 16:21:00,
2013-08-11 12:26:00,68.7,64.7,30.13,NW,315,4.0,6.0,87,0.00,,,0.00,Wunderground v.1.15,2013-08-11 16:26:00,
2013-08-11 12:32:00,68.5,64.5,30.13,NW,315,3.0,4.0,87,0.00,,,0.00,Wunderground v.1.15,2013-08-11 16:32:00,
2013-08-11 12:37:00,68.9,65.2,30.13,NW,315,4.0,4.0,88,0.00,,,0.00,Wunderground v.1.15,2013-08-11 16:37:00,
2013-08-11 12:42:00,69.0,65.0,30.13,NW,315,4.0,4.0,87,0.00,,,0.00,Wunderground v.1.15,2013-08-11 16:42:00,
2013-08-11 12:47:00,69.0,65.0,30.13,NW,315,3.0,5.0,87,0.00,,,0.00,Wunderground v.1.15,2013-08-11 16:47:00,
2013-08-11 12:52:00,69.3,64.9,30.13,NW,315,4.0,5.0,86,0.00,,,0.00,Wunderground v.1.15,2013-08-11 16:52:00,
2013-08-11 12:57:00,69.4,65.7,30.13,NW,309,6.0,6.0,88,0.00,,,0.00,Wunderground v.1.15,2013-08-11 16:57:00,
2013-08-11 13:02:00,69.5,65.8,30.14,NW,305,5.0,6.0,88,0.00,,,0.00,Wunderground v.1.15,2013-08-11 17:02:00,
2013-08-11 13:07:00,69.8,66.4,30.13,NW,305,5.0,6.0,89,0.00,,,0.00,Wunderground v.1.15,2013-08-11 17:07:00,
2013-08-11 13:12:00,70.2,66.5,30.14,NW,305,5.0,5.0,88,0.00,,,0.00,Wunderground v.1.15,2013-08-11 17:12:00,
2013-08-11 13:17:00,70.7,66.3,30.13,NW,304,4.0,6.0,86,0.00,,,0.00,Wunderground v.1.15,2013-08-11 17:17:00,
2013-08-11 13:22:00,70.5,66.1,30.14,NW,304,3.0,5.0,86,0.00,,,0.00,Wunderground v.1.15,2013-08-11 17:22:00,
2013-08-11 13:27:00,70.3,65.2,30.13,NW,304,4.0,5.0,84,0.00,,,0.00,Wunderground v.1.15,2013-08-11 17:27:00,
2013-08-11 13:32:00,70.5,65.4,30.12,NW,304,1.0,4.0,84,0.00,,,0.00,Wunderground v.1.15,2013-08-11 17:32:00,
2013-08-11 13:37:00,70.1,66.0,30.13,NW,304,4.0,4.0,87,0.00,,,0.00,Wunderground v.1.15,2013-08-11 17:37:00,
2013-08-11 13:42:00,70.1,65.4,30.13,NW,304,3.0,4.0,85,0.00,,,0.00,Wunderground v.1.15,2013-08-11 17:42:00,
2013-08-11 13:48:00,70.9,66.5,30.13,NW,304,4.0,5.0,86,0.00,,,0.00,Wunderground v.1.15,2013-08-11 17:48:00,
2013-08-11 13:53:00,71.2,66.8,30.13,NW,304,5.0,5.0,86,0.00,,,0.00,Wunderground v.1.15,2013-08-11 17:53:00,
2013-08-11 13:58:00,71.4,66.7,30.13,NW,304,3.0,5.0,85,0.00,,,0.00,Wunderground v.1.15,2013-08-11 17:58:00,
2013-08-11 14:03:00,71.4,66.7,30.13,NW,304,6.0,6.0,85,0.00,,,0.00,Wunderground v.1.15,2013-08-11 18:03:00,
2013-08-11 14:08:00,70.9,66.2,30.13,WNW,296,6.0,8.0,85,0.00,,,0.00,Wunderground v.1.15,2013-08-11 18:08:00,
2013-08-11 14:13:00,71.4,66.0,30.13,WNW,296,7.0,7.0,83,0.00,,,0.00,Wunderground v.1.15,2013-08-11 18:13:00,
2013-08-11 14:18:00,71.6,65.8,30.13,WNW,297,5.0,7.0,82,0.00,,,0.00,Wunderground v.1.15,2013-08-11 18:18:00,
2013-08-11 14:23:00,71.9,65.4,30.13,WNW,297,5.0,7.0,80,0.00,,,0.00,Wunderground v.1.15,2013-08-11 18:23:00,
2013-08-11 14:28:00,72.0,66.9,30.13,WNW,298,5.0,7.0,84,0.00,,,0.00,Wunderground v.1.15,2013-08-11 18:28:00,
2013-08-11 14:33:00,72.6,66.8,30.13,WNW,299,4.0,6.0,82,0.00,,,0.00,Wunderground v.1.15,2013-08-11 18:33:00,
2013-08-11 14:38:00,71.9,65.4,30.13,WNW,299,4.0,6.0,80,0.00,,,0.00,Wunderground v.1.15,2013-08-11 18:38:00,
2013-08-11 14:43:00,71.5,65.7,30.12,WNW,299,4.0,4.0,82,0.00,,,0.00,Wunderground v.1.15,2013-08-11 18:43:00,
2013-08-11 14:48:00,72.5,66.0,30.12,WNW,299,4.0,4.0,80,0.00,,,0.00,Wunderground v.1.15,2013-08-11 18:48:00,
2013-08-11 14:53:00,72.9,65.6,30.11,WNW,298,2.0,4.0,78,0.00,,,0.00,Wunderground v.1.15,2013-08-11 18:53:00,
2013-08-11 14:58:00,73.7,66.0,30.11,WNW,298,3.0,4.0,77,0.00,,,0.00,Wunderground v.1.15,2013-08-11 18:58:00,
2013-08-11 15:03:00,73.3,65.7,30.11,WNW,298,2.0,3.0,77,0.00,,,0.00,Wunderground v.1.15,2013-08-11 19:03:00,
2013-08-11 15:08:00,72.4,64.8,30.11,WNW,298,2.0,3.0,77,0.00,,,0.00,Wunderground v.1.15,2013-08-11 19:08:00,
2013-08-11 15:13:00,72.6,66.1,30.10,WNW,298,3.0,4.0,80,0.00,,,0.00,Wunderground v.1.15,2013-08-11 19:13:00,
2013-08-11 15:18:00,72.8,64.4,30.10,WNW,299,2.0,4.0,75,0.00,,,0.00,Wunderground v.1.15,2013-08-11 19:18:00,
2013-08-11 15:23:00,72.9,64.5,30.10,WNW,298,2.0,3.0,75,0.00,,,0.00,Wunderground v.1.15,2013-08-11 19:23:00,
2013-08-11 15:28:00,72.0,63.6,30.10,WNW,298,2.0,3.0,75,0.00,,,0.00,Wunderground v.1.15,2013-08-11 19:28:00,
2013-08-11 15:33:00,71.9,64.7,30.10,WNW,298,2.0,3.0,78,0.00,,,0.00,Wunderground v.1.15,2013-08-11 19:33:00,
2013-08-11 15:38:00,72.8,65.5,30.10,WNW,299,2.0,2.0,78,0.00,,,0.00,Wunderground v.1.15,2013-08-11 19:38:00,
2013-08-11 15:44:00,72.8,64.4,30.10,WNW,298,2.0,3.0,75,0.00,,,0.00,Wunderground v.1.15,2013-08-11 19:44:00,
2013-08-11 15:49:00,72.1,62.6,30.10,WNW,298,2.0,3.0,72,0.00,,,0.00,Wunderground v.1.15,2013-08-11 19:49:00,
2013-08-11 15:54:00,71.4,62.7,30.10,WNW,298,2.0,3.0,74,0.00,,,0.00,Wunderground v.1.15,2013-08-11 19:54:00,
2013-08-11 15:59:00,70.5,62.9,30.10,WNW,298,1.0,2.0,77,0.00,,,0.00,Wunderground v.1.15,2013-08-11 19:59:00,
2013-08-11 16:04:00,70.4,62.8,30.09,WNW,298,1.0,3.0,77,0.00,,,0.00,Wunderground v.1.15,2013-08-11 20:04:00,
2013-08-11 16:09:00,70.6,63.0,30.09,WNW,298,1.0,3.0,77,0.00,,,0.00,Wunderground v.1.15,2013-08-11 20:09:00,
2013-08-11 16:14:00,70.8,63.2,30.09,WNW,298,2.0,2.0,77,0.00,,,0.00,Wunderground v.1.15,2013-08-11 20:14:00,
2013-08-11 16:19:00,71.2,63.2,30.09,WNW,298,0.0,1.0,76,0.00,,,0.00,Wunderground v.1.15,2013-08-11 20:19:00,
2013-08-11 16:24:00,71.3,62.6,30.09,WNW,298,2.0,3.0,74,0.00,,,0.00,Wunderground v.1.15,2013-08-11 20:24:00,
2013-08-11 16:29:00,72.1,63.4,30.09,WNW,298,2.0,2.0,74,0.00,,,0.00,Wunderground v.1.15,2013-08-11 20:29:00,
2013-08-11 16:34:00,72.0,62.9,30.09,WNW,299,3.0,3.0,73,0.00,,,0.00,Wunderground v.1.15,2013-08-11 20:34:00,
2013-08-11 16:39:00,71.6,63.3,30.09,WNW,299,2.0,3.0,75,0.00,,,0.00,Wunderground v.1.15,2013-08-11 20:39:00,
2013-08-11 16:44:00,72.1,63.4,30.09,WNW,299,1.0,3.0,74,0.00,,,0.00,Wunderground v.1.15,2013-08-11 20:44:00,
2013-08-11 16:49:00,72.1,62.6,30.08,WNW,298,1.0,2.0,72,0.00,,,0.00,Wunderground v.1.15,2013-08-11 20:49:00,
2013-08-11 16:54:00,71.6,62.5,30.08,WNW,298,2.0,4.0,73,0.00,,,0.00,Wunderground v.1.15,2013-08-11 20:54:00,
2013-08-11 16:59:00,71.6,62.5,30.08,WNW,298,2.0,3.0,73,0.00,,,0.00,Wunderground v.1.15,2013-08-11 20:59:00,
2013-08-11 17:04:00,71.8,63.1,30.08,WNW,298,1.0,3.0,74,0.00,,,0.00,Wunderground v.1.15,2013-08-11 21:04:00,
2013-08-11 17:09:00,72.8,63.6,30.08,WNW,298,2.0,2.0,73,0.00,,,0.00,Wunderground v.1.15,2013-08-11 21:09:00,
2013-08-11 17:14:00,72.0,62.1,30.08,WNW,298,2.0,3.0,71,0.00,,,0.00,Wunderground v.1.15,2013-08-11 21:14:00,
2013-08-11 17:19:00,70.9,62.2,30.08,WNW,298,0.0,2.0,74,0.00,,,0.00,Wunderground v.1.15,2013-08-11 21:19:00,
2013-08-11 17:24:00,71.1,62.4,30.07,WNW,299,0.0,2.0,74,0.00,,,0.00,Wunderground v.1.15,2013-08-11 21:24:00,
2013-08-11 17:29:00,71.0,61.9,30.08,WNW,298,0.0,1.0,73,0.00,,,0.00,Wunderground v.1.15,2013-08-11 21:29:00,
2013-08-11 17:35:00,71.4,63.1,30.07,WNW,299,1.0,1.0,75,0.00,,,0.00,Wunderground v.1.15,2013-08-11 21:35:00,
2013-08-11 17:40:00,71.7,62.2,30.07,WNW,298,2.0,3.0,72,0.00,,,0.00,Wunderground v.1.15,2013-08-11 21:40:00,
2013-08-11 17:45:00,71.2,62.1,30.07,WNW,298,0.0,3.0,73,0.00,,,0.00,Wunderground v.1.15,2013-08-11 21:45:00,
2013-08-11 17:50:00,71.0,62.7,30.07,WNW,298,0.0,0.0,75,0.00,,,0.00,Wunderground v.1.15,2013-08-11 21:50:00,
2013-08-11 17:55:00,70.8,62.5,30.07,WNW,299,0.0,1.0,75,0.00,,,0.00,Wunderground v.1.15,2013-08-11 21:55:00,
2013-08-11 18:00:00,71.1,63.1,30.07,WNW,299,0.0,0.0,76,0.00,,,0.00,Wunderground v.1.15,2013-08-11 22:00:00,
2013-08-11 18:06:00,72.1,62.2,30.07,WNW,298,0.0,0.0,71,0.00,,,0.00,Wunderground v.1.15,2013-08-11 22:06:00,
2013-08-11 18:11:00,72.2,61.0,30.06,WNW,299,0.0,0.0,68,0.00,,,0.00,Wunderground v.1.15,2013-08-11 22:11:00,
2013-08-11 18:16:00,71.7,62.2,30.06,WNW,299,0.0,0.0,72,0.00,,,0.00,Wunderground v.1.15,2013-08-11 22:16:00,
2013-08-11 18:21:00,72.1,62.2,30.06,WNW,298,0.0,0.0,71,0.00,,,0.00,Wunderground v.1.15,2013-08-11 22:21:00,
2013-08-11 18:26:00,72.1,60.1,30.06,WNW,299,0.0,1.0,66,0.00,,,0.00,Wunderground v.1.15,2013-08-11 22:26:00,
2013-08-11 18:31:00,73.0,61.8,30.06,WNW,298,0.0,1.0,68,0.00,,,0.00,Wunderground v.1.15,2013-08-11 22:31:00,
2013-08-11 18:36:00,72.9,63.3,30.06,WNW,298,0.0,1.0,72,0.00,,,0.00,Wunderground v.1.15,2013-08-11 22:36:00,
2013-08-11 18:41:00,72.1,60.5,30.05,WNW,299,0.0,0.0,67,0.00,,,0.00,Wunderground v.1.15,2013-08-11 22:41:00,
2013-08-11 18:46:00,71.7,62.6,30.05,WNW,298,0.0,0.0,73,0.00,,,0.00,Wunderground v.1.15,2013-08-11 22:46:00,
2013-08-11 18:51:00,71.3,61.4,30.05,WNW,298,0.0,0.0,71,0.00,,,0.00,Wunderground v.1.15,2013-08-11 22:51:00,
2013-08-11 18:56:00,71.1,63.1,30.05,WNW,299,0.0,0.0,76,0.00,,,0.00,Wunderground v.1.15,2013-08-11 22:56:00,
2013-08-11 19:01:00,71.1,63.1,30.05,WNW,299,0.0,0.0,76,0.00,,,0.00,Wunderground v.1.15,2013-08-11 23:01:00,
2013-08-11 19:06:00,71.0,62.7,30.05,WNW,298,0.0,0.0,75,0.00,,,0.00,Wunderground v.1.15,2013-08-11 23:06:00,
2013-08-11 19:11:00,71.0,62.3,30.05,WNW,298,0.0,0.0,74,0.00,,,0.00,Wunderground v.1.15,2013-08-11 23:11:00,
2013-08-11 19:17:00,70.8,60.5,30.05,WNW,298,0.0,0.0,70,0.00,,,0.00,Wunderground v.1.15,2013-08-11 23:17:00,
2013-08-11 19:22:00,70.9,61.0,30.05,WNW,298,0.0,0.0,71,0.00,,,0.00,Wunderground v.1.15,2013-08-11 23:22:00,
2013-08-11 19:27:00,70.7,58.4,30.04,WNW,298,0.0,0.0,65,0.00,,,0.00,Wunderground v.1.15,2013-08-11 23:27:00,
2013-08-11 19:32:00,71.0,58.6,30.05,WNW,299,0.0,0.0,65,0.00,,,0.00,Wunderground v.1.15,2013-08-11 23:32:00,
2013-08-11 19:37:00,70.9,57.7,30.05,WNW,299,0.0,0.0,63,0.00,,,0.00,Wunderground v.1.15,2013-08-11 23:37:00,
2013-08-11 19:42:00,70.9,57.7,30.04,WNW,298,0.0,0.0,63,0.00,,,0.00,Wunderground v.1.15,2013-08-11 23:42:00,
2013-08-11 19:47:00,70.8,57.6,30.04,WNW,299,0.0,0.0,63,0.00,,,0.00,Wunderground v.1.15,2013-08-11 23:47:00,
2013-08-11 19:52:00,71.2,58.4,30.04,WNW,298,0.0,0.0,64,0.00,,,0.00,Wunderground v.1.15,2013-08-11 23:52:00,
2013-08-11 19:57:00,71.2,60.9,30.04,WNW,298,0.0,0.0,70,0.00,,,0.00,Wunderground v.1.15,2013-08-11 23:57:00,
2013-08-11 20:02:00,71.1,60.4,30.04,WNW,299,0.0,0.0,69,0.00,,,0.00,Wunderground v.1.15,2013-08-12 00:02:00,
2013-08-11 20:07:00,71.2,60.1,30.04,WNW,298,0.0,0.0,68,0.00,,,0.00,Wunderground v.1.15,2013-08-12 00:07:00,
2013-08-11 20:12:00,71.4,60.3,30.04,WNW,299,0.0,0.0,68,0.00,,,0.00,Wunderground v.1.15,2013-08-12 00:12:00,
2013-08-11 20:17:00,71.4,60.7,30.04,WNW,298,0.0,0.0,69,0.00,,,0.00,Wunderground v.1.15,2013-08-12 00:17:00,
2013-08-11 20:22:00,71.2,60.5,30.04,WNW,299,0.0,0.0,69,0.00,,,0.00,Wunderground v.1.15,2013-08-12 00:22:00,
2013-08-11 20:27:00,71.5,60.8,30.04,WNW,298,0.0,0.0,69,0.00,,,0.00,Wunderground v.1.15,2013-08-12 00:27:00,
2013-08-11 20:32:00,71.5,61.2,30.04,WNW,298,0.0,0.0,70,0.00,,,0.00,Wunderground v.1.15,2013-08-12 00:32:00,
2013-08-11 20:38:00,71.7,61.0,30.04,WNW,298,0.0,0.0,69,0.00,,,0.00,Wunderground v.1.15,2013-08-12 00:38:00,
2013-08-11 20:43:00,71.7,61.0,30.04,WNW,299,0.0,0.0,69,0.00,,,0.00,Wunderground v.1.15,2013-08-12 00:43:00,
2013-08-11 20:48:00,71.6,60.5,30.04,WNW,299,0.0,0.0,68,0.00,,,0.00,Wunderground v.1.15,2013-08-12 00:48:00,
2013-08-11 20:53:00,71.5,60.8,30.04,WNW,299,0.0,0.0,69,0.00,,,0.00,Wunderground v.1.15,2013-08-12 00:53:00,
2013-08-11 20:58:00,71.3,60.6,30.04,WNW,299,0.0,0.0,69,0.00,,,0.00,Wunderground v.1.15,2013-08-12 00:58:00,
2013-08-11 21:03:00,71.3,61.0,30.04,WNW,298,0.0,0.0,70,0.00,,,0.00,Wunderground v.1.15,2013-08-12 01:03:00,
2013-08-11 21:08:00,71.4,61.1,30.04,WNW,299,0.0,0.0,70,0.00,,,0.00,Wunderground v.1.15,2013-08-12 01:08:00,
2013-08-11 21:13:00,71.4,61.1,30.04,WNW,298,0.0,0.0,70,0.00,,,0.00,Wunderground v.1.15,2013-08-12 01:13:00,
2013-08-11 21:19:00,71.3,61.4,30.05,WNW,298,0.0,0.0,71,0.00,,,0.00,Wunderground v.1.15,2013-08-12 01:19:00,
2013-08-11 21:24:00,71.2,60.5,30.05,WNW,298,0.0,0.0,69,0.00,,,0.00,Wunderground v.1.15,2013-08-12 01:24:00,
2013-08-11 21:29:00,71.3,61.0,30.05,WNW,299,0.0,0.0,70,0.00,,,0.00,Wunderground v.1.15,2013-08-12 01:29:00,
2013-08-11 21:34:00,71.1,60.8,30.05,WNW,298,0.0,0.0,70,0.00,,,0.00,Wunderground v.1.15,2013-08-12 01:34:00,
2013-08-11 21:39:00,70.9,61.4,30.05,WNW,299,0.0,0.0,72,0.00,,,0.00,Wunderground v.1.15,2013-08-12 01:39:00,
2013-08-11 21:44:00,70.6,61.1,30.05,WNW,298,0.0,1.0,72,0.00,,,0.00,Wunderground v.1.15,2013-08-12 01:44:00,
2013-08-11 21:49:00,70.5,61.0,30.05,WNW,298,0.0,1.0,72,0.00,,,0.00,Wunderground v.1.15,2013-08-12 01:49:00,
2013-08-11 21:54:00,70.4,60.9,30.06,WNW,298,0.0,0.0,72,0.00,,,0.00,Wunderground v.1.15,2013-08-12 01:54:00,
2013-08-11 21:59:00,70.3,60.8,30.06,WNW,298,0.0,0.0,72,0.00,,,0.00,Wunderground v.1.15,2013-08-12 01:59:00,
2013-08-11 22:04:00,70.1,60.7,30.06,WNW,298,1.0,1.0,72,0.00,,,0.00,Wunderground v.1.15,2013-08-12 02:04:00,
2013-08-11 22:09:00,69.7,61.0,30.05,WNW,299,0.0,1.0,74,0.00,,,0.00,Wunderground v.1.15,2013-08-12 02:09:00,
2013-08-11 22:14:00,69.6,60.9,30.05,WNW,298,0.0,1.0,74,0.00,,,0.00,Wunderground v.1.15,2013-08-12 02:14:00,
2013-08-11 22:19:00,69.4,61.1,30.06,WNW,298,0.0,1.0,75,0.00,,,0.00,Wunderground v.1.15,2013-08-12 02:19:00,
2013-08-11 22:24:00,69.4,61.1,30.06,WNW,298,0.0,1.0,75,0.00,,,0.00,Wunderground v.1.15,2013-08-12 02:24:00,
2013-08-11 22:29:00,69.2,60.9,30.06,WNW,298,0.0,0.0,75,0.00,,,0.00,Wunderground v.1.15,2013-08-12 02:29:00,
2013-08-11 22:34:00,69.1,60.8,30.06,WNW,298,1.0,2.0,75,0.00,,,0.00,Wunderground v.1.15,2013-08-12 02:34:00,
2013-08-11 22:40:00,68.9,61.0,30.06,WNW,298,0.0,1.0,76,0.00,,,0.00,Wunderground v.1.15,2013-08-12 02:40:00,
2013-08-11 22:45:00,68.9,61.0,30.06,WNW,298,1.0,1.0,76,0.00,,,0.00,Wunderground v.1.15,2013-08-12 02:45:00,
2013-08-11 22:50:00,69.0,61.1,30.06,WNW,298,1.0,1.0,76,0.00,,,0.00,Wunderground v.1.15,2013-08-12 02:50:00,
2013-08-11 22:55:00,68.8,60.9,30.06,WNW,298,2.0,2.0,76,0.00,,,0.00,Wunderground v.1.15,2013-08-12 02:55:00,
2013-08-11 23:00:00,68.7,61.2,30.05,WNW,299,1.0,2.0,77,0.00,,,0.00,Wunderground v.1.15,2013-08-12 03:00:00,
2013-08-11 23:05:00,68.7,61.2,30.05,WNW,299,2.0,2.0,77,0.00,,,0.00,Wunderground v.1.15,2013-08-12 03:05:00,
2013-08-11 23:10:00,68.8,61.3,30.05,WNW,298,2.0,2.0,77,0.00,,,0.00,Wunderground v.1.15,2013-08-12 03:10:00,
2013-08-11 23:15:00,68.9,61.4,30.05,WNW,298,0.0,3.0,77,0.00,,,0.00,Wunderground v.1.15,2013-08-12 03:15:00,
2013-08-11 23:20:00,69.0,61.1,30.05,WNW,298,1.0,2.0,76,0.00,,,0.00,Wunderground v.1.15,2013-08-12 03:20:00,
2013-08-11 23:25:00,69.2,61.3,30.05,WNW,298,1.0,2.0,76,0.00,,,0.00,Wunderground v.1.15,2013-08-12 03:25:00,
2013-08-11 23:30:00,69.3,61.4,30.05,WNW,298,1.0,2.0,76,0.00,,,0.00,Wunderground v.1.15,2013-08-12 03:30:00,
2013-08-11 23:35:00,69.4,61.5,30.05,WNW,298,2.0,2.0,76,0.00,,,0.00,Wunderground v.1.15,2013-08-12 03:35:00,
2013-08-11 23:40:00,69.4,61.5,30.05,WNW,298,1.0,2.0,76,0.00,,,0.00,Wunderground v.1.15,2013-08-12 03:40:00,
2013-08-11 23:46:00,69.4,61.5,30.05,WNW,299,1.0,3.0,76,0.00,,,0.00,Wunderground v.1.15,2013-08-12 03:46:00,
2013-08-11 23:51:00,69.4,61.5,30.05,WNW,299,1.0,2.0,76,0.00,,,0.00,Wunderground v.1.15,2013-08-12 03:51:00,
2013-08-11 23:56:00,69.4,61.5,30.05,WNW,299,1.0,2.0,76,0.00,,,0.00,Wunderground v.1.15,2013-08-12 03:56:00,